Time;durP1;ratioP1;P1;durP2;ratioP2;P2;SDS_P1;SDS_P2;PMS_P1;PMS_P2;Temp;Humidity;BMP_temperature;BMP_pressure;BME280_temperature;BME280_humidity;BME280_pressure;Samples;Min_cycle;Max_cycle;Signal;HPM_P1;HPM_P2
2022/11/11 00:01:25;;;;;;;9.13;4.88;;;10.70;99.90;;;;;;5050443;28;20098;-65
2022/11/11 00:03:53;;;;;;;13.75;5.40;;;10.70;99.90;;;;;;5050156;28;20044;-65
2022/11/11 00:06:19;;;;;;;8.18;4.80;;;10.70;99.90;;;;;;5050609;28;20037;-65
2022/11/11 00:08:47;;;;;;;12.20;4.97;;;10.80;99.90;;;;;;5050471;28;20057;-65
2022/11/11 00:11:13;;;;;;;10.60;5.00;;;10.70;99.90;;;;;;5050362;28;20045;-65
2022/11/11 00:13:40;;;;;;;11.93;5.03;;;10.80;99.90;;;;;;5049289;28;20051;-65
2022/11/11 00:16:23;;;;;;;9.98;5.40;;;10.70;99.90;;;;;;5050291;28;20045;-65
2022/11/11 00:27:10;;;;;;;13.90;5.85;;;10.80;99.90;;;;;;5053057;28;20496;-65
2022/11/11 00:29:37;;;;;;;13.88;5.63;;;10.80;99.90;;;;;;5052796;28;20048;-65
2022/11/11 00:37:33;;;;;;;18.13;5.68;;;10.80;99.90;;;;;;5054047;28;20049;-65
2022/11/11 00:39:58;;;;;;;17.10;6.18;;;10.80;99.90;;;;;;5053777;28;20045;-65
2022/11/11 00:42:24;;;;;;;10.82;5.72;;;10.90;99.90;;;;;;5053620;28;20033;-65
2022/11/11 00:44:49;;;;;;;10.80;5.55;;;10.80;99.90;;;;;;5053703;28;20481;-65
2022/11/11 00:52:45;;;;;;;12.20;6.10;;;10.80;99.90;;;;;;5053835;28;20049;-65
2022/11/11 00:55:11;;;;;;;10.40;5.75;;;10.80;99.90;;;;;;5053046;28;20053;-65
2022/11/11 00:57:37;;;;;;;15.77;5.97;;;10.90;99.90;;;;;;5053632;28;20041;-65
2022/11/11 01:00:03;;;;;;;12.90;6.55;;;10.90;99.90;;;;;;5053254;28;20039;-65
2022/11/11 01:02:28;;;;;;;12.45;6.13;;;10.80;99.90;;;;;;5053601;28;20037;-65
2022/11/11 01:04:54;;;;;;;10.43;6.70;;;10.80;99.90;;;;;;5052850;28;20048;-65
2022/11/11 01:07:20;;;;;;;17.25;6.10;;;10.80;99.90;;;;;;5053182;28;20041;-65
2022/11/11 01:09:45;;;;;;;12.93;6.72;;;10.80;99.90;;;;;;5053411;28;20515;-65
2022/11/11 01:12:11;;;;;;;16.23;6.57;;;10.70;99.90;;;;;;5053112;28;20105;-65
2022/11/11 01:14:36;;;;;;;13.70;6.93;;;10.60;99.90;;;;;;5052749;28;20680;-65
2022/11/11 01:17:03;;;;;;;14.68;6.13;;;10.60;99.90;;;;;;5053181;28;20041;-65
2022/11/11 01:19:29;;;;;;;14.27;6.88;;;10.60;99.90;;;;;;5053312;28;20059;-65
2022/11/11 01:21:54;;;;;;;12.60;6.32;;;10.60;99.90;;;;;;5051394;28;20521;-65
2022/11/11 01:24:20;;;;;;;13.75;6.70;;;10.50;99.90;;;;;;5052980;28;20051;-65
2022/11/11 01:26:46;;;;;;;11.70;6.35;;;10.50;99.90;;;;;;5053040;28;20049;-65
2022/11/11 01:29:11;;;;;;;15.73;7.60;;;10.50;99.90;;;;;;5050322;28;20036;-65
2022/11/11 01:31:37;;;;;;;11.52;6.78;;;10.40;99.90;;;;;;5052622;28;20116;-65
2022/11/11 01:34:02;;;;;;;12.77;6.82;;;10.30;99.90;;;;;;5052585;28;20039;-65
2022/11/11 01:36:28;;;;;;;14.57;7.82;;;10.40;99.90;;;;;;5052521;28;20547;-65
2022/11/11 01:38:56;;;;;;;17.70;7.43;;;10.40;99.90;;;;;;5052789;28;20413;-66
2022/11/11 01:41:35;;;;;;;18.45;7.53;;;10.40;99.90;;;;;;5052804;28;20116;-65
2022/11/11 01:44:16;;;;;;;12.98;6.80;;;10.40;99.90;;;;;;5051081;28;20045;-65
2022/11/11 01:46:46;;;;;;;11.43;6.70;;;10.30;99.90;;;;;;5052962;28;20444;-65
2022/11/11 01:49:55;;;;;;;20.77;9.20;;;10.20;99.90;;;;;;5051047;28;20037;-65
2022/11/11 01:52:23;;;;;;;19.20;8.35;;;10.30;99.90;;;;;;5010029;28;20050;-65
2022/11/11 01:55:06;;;;;;;14.60;8.35;;;10.20;99.90;;;;;;4977532;28;20042;-65
2022/11/11 01:57:52;;;;;;;16.30;7.72;;;10.20;99.90;;;;;;5010074;28;20057;-65
2022/11/11 02:00:18;;;;;;;15.90;8.73;;;10.20;99.90;;;;;;4993374;28;20129;-65
2022/11/11 02:03:11;;;;;;;16.13;7.72;;;10.20;99.90;;;;;;5010057;28;20045;-65
2022/11/11 02:05:44;;;;;;;;;;;10.20;99.90;;;;;;5006905;28;20050;-65
2022/11/11 02:08:32;;;;;;;14.32;8.43;;;10.10;99.90;;;;;;5010057;28;19917;-65
2022/11/11 02:11:00;;;;;;;16.80;8.57;;;10.10;99.90;;;;;;5009623;28;20056;-65
2022/11/11 02:16:09;;;;;;;15.88;8.60;;;10.10;99.90;;;;;;5009343;28;20046;-65
2022/11/11 02:18:35;;;;;;;23.70;10.48;;;10.10;99.90;;;;;;5009723;28;20396;-65
2022/11/11 02:21:00;;;;;;;17.08;9.32;;;10.10;99.90;;;;;;5009584;28;20501;-65
2022/11/11 02:23:34;;;;;;;20.52;9.75;;;10.10;99.90;;;;;;5009705;28;20045;-65
2022/11/11 02:26:03;;;;;;;17.52;9.68;;;10.20;99.90;;;;;;5009431;28;20536;-65
2022/11/11 02:28:31;;;;;;;23.58;10.95;;;10.20;99.90;;;;;;5023765;28;20044;-65
2022/11/11 02:30:56;;;;;;;15.75;9.95;;;10.10;99.90;;;;;;5051829;28;20055;-65
2022/11/11 02:33:22;;;;;;;21.00;10.43;;;10.20;99.90;;;;;;5051928;28;20408;-65
2022/11/11 02:35:55;;;;;;;20.40;10.32;;;10.10;99.90;;;;;;5050333;28;20497;-65
2022/11/11 02:38:22;;;;;;;23.10;11.23;;;10.20;99.90;;;;;;5051724;28;20041;-65
2022/11/11 02:43:33;;;;;;;26.10;12.13;;;10.20;99.90;;;;;;5051398;28;20489;-65
2022/11/11 02:46:01;;;;;;;21.83;11.32;;;10.20;99.90;;;;;;5051401;28;20045;-65
2022/11/11 02:48:27;;;;;;;22.42;12.38;;;10.20;99.90;;;;;;5051351;28;20044;-65
2022/11/11 02:50:53;;;;;;;20.95;11.90;;;10.20;99.90;;;;;;5051327;28;20055;-65
2022/11/11 02:53:19;;;;;;;20.35;11.35;;;10.20;99.90;;;;;;5051471;28;20045;-65
2022/11/11 02:55:44;;;;;;;26.45;12.02;;;10.20;99.90;;;;;;5050930;28;20044;-65
2022/11/11 02:58:10;;;;;;;28.08;12.93;;;10.20;99.90;;;;;;5051282;28;20045;-65
2022/11/11 03:00:36;;;;;;;22.42;12.07;;;10.30;99.90;;;;;;5051038;28;20045;-65
2022/11/11 03:03:01;;;;;;;25.67;12.32;;;10.30;99.90;;;;;;5051413;28;20044;-65
2022/11/11 03:05:27;;;;;;;29.65;14.65;;;10.20;99.90;;;;;;5050955;28;20477;-65
2022/11/11 03:07:52;;;;;;;25.30;11.50;;;10.20;99.90;;;;;;5051108;28;20041;-65
2022/11/11 03:10:18;;;;;;;23.85;13.15;;;10.30;99.90;;;;;;5049537;28;20464;-65
2022/11/11 03:12:44;;;;;;;23.52;12.32;;;10.30;99.90;;;;;;5050864;28;20045;-65
2022/11/11 03:15:09;;;;;;;28.90;13.07;;;10.30;99.90;;;;;;5050746;28;20033;-65
2022/11/11 03:17:38;;;;;;;21.17;12.13;;;10.30;99.90;;;;;;5050660;28;20052;-65
2022/11/11 03:23:07;;;;;;;29.52;13.65;;;10.30;99.90;;;;;;5051053;28;20406;-64
2022/11/11 03:25:36;;;;;;;29.73;13.75;;;10.30;99.90;;;;;;5050827;28;20045;-65
2022/11/11 03:28:05;;;;;;;24.98;13.43;;;10.40;99.90;;;;;;5050812;28;20041;-65
2022/11/11 03:30:31;;;;;;;25.52;13.63;;;10.40;99.90;;;;;;5050787;28;20095;-65
2022/11/11 03:32:57;;;;;;;26.25;13.88;;;10.40;99.90;;;;;;5050778;28;20040;-65
2022/11/11 03:35:23;;;;;;;27.20;13.98;;;10.50;99.90;;;;;;5050388;28;20048;-65
2022/11/11 03:40:32;;;;;;;29.02;14.50;;;10.40;99.90;;;;;;5049367;28;20048;-65
2022/11/11 03:42:58;;;;;;;26.17;13.85;;;10.40;99.90;;;;;;5050802;28;20386;-65
2022/11/11 03:45:23;;;;;;;26.20;13.48;;;10.50;99.90;;;;;;5050199;28;20095;-65
2022/11/11 03:47:49;;;;;;;25.08;14.10;;;10.40;99.90;;;;;;5050557;28;20386;-65
2022/11/11 03:50:14;;;;;;;21.42;12.65;;;10.40;99.90;;;;;;5050459;28;20553;-65
2022/11/11 03:52:44;;;;;;;30.33;14.75;;;10.30;99.90;;;;;;5053650;28;20171;-65
2022/11/11 03:55:10;;;;;;;28.90;13.88;;;10.30;99.90;;;;;;5054381;28;20051;-65
2022/11/11 03:57:40;;;;;;;29.70;14.15;;;10.30;99.90;;;;;;5054614;28;20045;-65
2022/11/11 04:00:06;;;;;;;30.55;15.43;;;10.30;99.90;;;;;;5054369;28;20041;-65
2022/11/11 04:10:45;;;;;;;29.52;15.25;;;10.40;99.90;;;;;;5054296;28;20045;-65
2022/11/11 04:16:05;;;;;;;26.35;14.45;;;10.40;99.90;;;;;;5054127;28;20436;-65
2022/11/11 04:23:59;;;;;;;29.13;13.85;;;10.50;99.90;;;;;;5054087;28;20048;-65
2022/11/11 04:26:25;;;;;;;28.42;15.18;;;10.40;99.90;;;;;;5054085;28;20041;-65
2022/11/11 04:31:35;;;;;;;30.75;14.55;;;10.50;99.90;;;;;;5053955;28;20505;-65
2022/11/11 04:34:00;;;;;;;25.08;14.70;;;10.50;99.90;;;;;;5053788;28;20033;-65
2022/11/11 04:36:26;;;;;;;28.88;15.57;;;10.60;99.90;;;;;;5054183;28;20049;-65
2022/11/11 04:41:35;;;;;;;29.20;13.77;;;10.60;99.90;;;;;;5053960;28;20128;-65
2022/11/11 04:46:45;;;;;;;30.92;14.30;;;10.60;99.90;;;;;;5053946;28;20049;-65
2022/11/11 04:49:11;;;;;;;31.27;13.40;;;10.60;99.90;;;;;;5053697;28;20524;-65
2022/11/11 04:54:21;;;;;;;28.17;15.10;;;10.60;99.90;;;;;;5053503;28;20057;-65
2022/11/11 04:56:46;;;;;;;29.92;16.48;;;10.70;99.90;;;;;;5053636;28;20102;-65
2022/11/11 04:59:15;;;;;;;26.10;13.98;;;10.70;99.90;;;;;;5053296;28;20532;-65
2022/11/11 05:04:25;;;;;;;24.42;14.27;;;10.70;99.90;;;;;;5053440;28;20037;-65
2022/11/11 05:09:35;;;;;;;27.88;14.75;;;10.70;99.90;;;;;;5053658;28;20041;-66
2022/11/11 05:12:00;;;;;;;30.45;15.23;;;10.70;99.90;;;;;;5053227;28;20041;-65
2022/11/11 05:22:40;;;;;;;30.20;13.60;;;10.60;99.90;;;;;;5053119;28;20048;-65
2022/11/11 05:25:25;;;;;;;23.73;13.93;;;10.60;99.90;;;;;;5052684;28;20041;-65
2022/11/11 05:27:52;;;;;;;25.65;14.25;;;10.60;99.90;;;;;;5052767;28;20040;-65
2022/11/11 05:30:19;;;;;;;27.83;14.23;;;10.70;99.90;;;;;;5052959;28;20052;-65
2022/11/11 05:32:45;;;;;;;26.75;13.45;;;10.70;99.90;;;;;;5052889;28;20037;-65
2022/11/11 05:35:11;;;;;;;27.13;14.30;;;10.70;99.90;;;;;;5052782;28;20041;-65
2022/11/11 05:37:37;;;;;;;27.35;13.93;;;10.70;99.90;;;;;;5052584;28;20037;-65
2022/11/11 05:40:03;;;;;;;26.10;13.00;;;10.70;99.90;;;;;;5052759;28;20059;-65
2022/11/11 05:42:28;;;;;;;21.23;12.57;;;10.70;99.90;;;;;;5052402;28;20048;-65
2022/11/11 05:44:54;;;;;;;28.05;13.65;;;10.70;99.90;;;;;;5052381;28;20140;-65
2022/11/11 05:47:19;;;;;;;31.00;13.65;;;10.70;99.90;;;;;;5052860;28;20033;-65
2022/11/11 05:49:45;;;;;;;20.92;12.45;;;10.70;99.90;;;;;;5052670;28;20036;-65
2022/11/11 05:52:12;;;;;;;28.08;13.50;;;10.70;99.90;;;;;;5052305;28;20045;-65
2022/11/11 05:54:39;;;;;;;24.70;12.82;;;10.70;99.90;;;;;;5052086;28;20048;-65
2022/11/11 05:57:04;;;;;;;23.20;12.77;;;10.70;99.90;;;;;;5051293;28;20084;-65
2022/11/11 05:59:30;;;;;;;25.55;12.52;;;10.70;99.90;;;;;;5052287;28;20120;-65
2022/11/11 06:01:55;;;;;;;24.23;12.55;;;10.70;99.90;;;;;;5052572;28;20045;-65
2022/11/11 06:04:21;;;;;;;24.00;13.13;;;10.70;99.90;;;;;;5034099;28;20434;-65
2022/11/11 06:06:47;;;;;;;27.30;13.70;;;10.70;99.90;;;;;;5052488;28;20040;-65
2022/11/11 06:09:12;;;;;;;27.85;13.05;;;10.70;99.90;;;;;;5052250;28;20662;-65
2022/11/11 06:11:38;;;;;;;21.20;11.93;;;10.70;99.90;;;;;;5051751;28;20040;-65
2022/11/11 06:14:04;;;;;;;23.80;13.43;;;10.70;99.90;;;;;;5051325;28;20067;-65
2022/11/11 06:16:30;;;;;;;27.05;14.15;;;10.70;99.90;;;;;;5051963;28;20036;-65
2022/11/11 06:18:55;;;;;;;31.23;13.00;;;10.80;99.90;;;;;;5051954;28;20128;-65
2022/11/11 06:21:21;;;;;;;29.15;13.70;;;10.70;99.90;;;;;;5050502;28;20087;-65
2022/11/11 06:23:46;;;;;;;31.50;14.15;;;10.70;99.90;;;;;;5051634;28;20382;-65
2022/11/11 06:26:12;;;;;;;23.58;12.60;;;10.70;99.90;;;;;;5051748;28;20041;-66
2022/11/11 06:28:42;;;;;;;21.52;12.23;;;10.80;99.90;;;;;;5051856;28;20129;-65
2022/11/11 06:31:09;;;;;;;24.58;12.90;;;10.70;99.90;;;;;;5051777;28;20120;-65
2022/11/11 06:33:35;;;;;;;23.27;12.05;;;10.70;99.90;;;;;;5051513;28;20489;-65
2022/11/11 06:36:02;;;;;;;22.98;12.93;;;10.80;99.90;;;;;;5051479;28;20083;-65
2022/11/11 06:38:28;;;;;;;24.50;13.10;;;10.80;99.90;;;;;;5051620;28;20367;-65
2022/11/11 06:40:54;;;;;;;21.63;11.38;;;10.70;99.90;;;;;;5051431;28;20051;-65
2022/11/11 06:43:20;;;;;;;22.52;12.43;;;10.80;99.90;;;;;;5051652;28;20398;-65
2022/11/11 06:45:50;;;;;;;23.13;12.30;;;10.80;99.90;;;;;;5051466;28;20490;-65
2022/11/11 06:48:15;;;;;;;26.60;12.55;;;10.70;99.90;;;;;;5050215;28;20041;-65
2022/11/11 06:50:41;;;;;;;23.63;11.88;;;10.80;99.90;;;;;;5051647;28;20167;-65
2022/11/11 06:53:11;;;;;;;19.80;11.82;;;10.70;99.90;;;;;;5051679;28;20107;-65
2022/11/11 06:55:37;;;;;;;21.63;11.55;;;10.80;99.90;;;;;;5051180;28;20040;-65
2022/11/11 06:58:17;;;;;;;24.80;12.98;;;10.80;99.90;;;;;;5051236;28;20493;-65
2022/11/11 07:00:44;;;;;;;22.77;11.32;;;10.80;99.90;;;;;;5051409;28;20397;-65
2022/11/11 07:03:12;;;;;;;25.70;12.18;;;10.80;99.90;;;;;;5051049;28;20037;-65
2022/11/11 07:05:38;;;;;;;25.33;12.32;;;10.80;99.90;;;;;;5048464;28;20393;-65
2022/11/11 07:08:05;;;;;;;28.92;12.55;;;10.80;99.90;;;;;;5048180;28;20052;-65
2022/11/11 07:10:32;;;;;;;25.27;12.13;;;10.80;99.90;;;;;;5048930;28;20049;-65
2022/11/11 07:12:58;;;;;;;21.63;12.07;;;10.80;99.90;;;;;;5051097;28;20048;-65
2022/11/11 07:15:24;;;;;;;24.23;13.05;;;10.80;99.90;;;;;;5050147;28;20044;-66
2022/11/11 07:17:49;;;;;;;22.85;11.10;;;10.80;99.90;;;;;;5050222;28;20516;-65
2022/11/11 07:20:15;;;;;;;19.88;10.38;;;10.80;99.90;;;;;;5050231;28;20124;-65
2022/11/11 07:22:41;;;;;;;20.90;11.60;;;10.80;99.90;;;;;;5049660;28;20036;-65
2022/11/11 07:25:07;;;;;;;27.15;12.95;;;10.80;99.90;;;;;;5050629;28;20036;-65
2022/11/11 07:27:36;;;;;;;24.67;11.82;;;10.80;99.90;;;;;;5050986;28;20162;-65
2022/11/11 07:30:02;;;;;;;25.85;12.10;;;10.80;99.90;;;;;;5050824;28;20048;-65
2022/11/11 07:32:27;;;;;;;24.73;12.65;;;10.80;99.90;;;;;;5049714;28;20132;-65
2022/11/11 07:34:53;;;;;;;25.05;11.48;;;10.80;99.90;;;;;;5050685;28;20129;-65
2022/11/11 07:37:19;;;;;;;26.20;11.23;;;10.80;99.90;;;;;;5050967;28;20041;-65
2022/11/11 07:39:44;;;;;;;26.17;11.05;;;10.80;99.90;;;;;;5050778;28;20709;-65
2022/11/11 07:42:10;;;;;;;22.67;11.57;;;10.90;99.90;;;;;;5050890;28;20104;-65
2022/11/11 07:44:35;;;;;;;21.85;11.05;;;10.80;99.90;;;;;;5050339;28;20451;-66
2022/11/11 07:47:01;;;;;;;23.23;11.27;;;10.90;99.90;;;;;;5050546;28;20459;-65
2022/11/11 07:49:26;;;;;;;17.35;11.40;;;10.90;99.90;;;;;;5050489;28;20467;-65
2022/11/11 07:51:52;;;;;;;21.65;11.45;;;10.90;99.90;;;;;;5050576;28;20040;-67
2022/11/11 07:54:17;;;;;;;23.98;10.63;;;11.10;99.90;;;;;;5050261;28;20038;-67
2022/11/11 07:56:43;;;;;;;22.60;11.02;;;11.00;99.90;;;;;;5050310;28;20133;-67
2022/11/11 07:59:08;;;;;;;21.15;11.10;;;10.90;99.90;;;;;;5050381;28;20041;-67
2022/11/11 08:01:34;;;;;;;17.33;10.25;;;10.90;99.90;;;;;;5048988;28;20052;-68
2022/11/11 08:03:59;;;;;;;25.92;11.60;;;10.90;99.90;;;;;;5050123;28;20295;-68
2022/11/11 08:06:25;;;;;;;24.25;11.43;;;10.90;99.90;;;;;;5050654;28;20404;-67
2022/11/11 08:08:50;;;;;;;20.23;11.18;;;10.90;99.90;;;;;;5049369;28;20489;-69
2022/11/11 08:13:39;;;;;;;22.73;10.43;;;11.00;99.90;;;;;;5050120;28;20055;-68
2022/11/11 08:14:02;;;;;;;26.02;11.10;;;10.90;99.90;;;;;;5049956;28;20139;-68
2022/11/11 08:16:27;;;;;;;17.88;10.65;;;10.90;99.90;;;;;;5050288;28;20529;-65
2022/11/11 08:18:53;;;;;;;23.23;10.85;;;10.90;99.90;;;;;;5049816;28;20143;-65
2022/11/11 08:21:19;;;;;;;21.63;10.73;;;11.00;99.90;;;;;;5049945;28;20513;-65
2022/11/11 08:23:44;;;;;;;23.92;11.23;;;11.00;99.90;;;;;;5049613;28;20037;-67
2022/11/11 08:26:10;;;;;;;23.95;12.48;;;11.00;99.90;;;;;;5049558;28;20033;-66
2022/11/11 08:28:35;;;;;;;17.08;9.80;;;11.00;99.90;;;;;;5049264;28;20056;-67
2022/11/11 08:31:01;;;;;;;21.88;10.52;;;11.00;99.90;;;;;;5049181;28;20132;-66
2022/11/11 08:33:27;;;;;;;20.65;10.48;;;10.90;99.90;;;;;;5049283;28;20080;-66
2022/11/11 08:35:54;;;;;;;19.65;9.80;;;10.90;99.90;;;;;;5048939;28;20045;-66
2022/11/11 08:38:23;;;;;;;19.50;9.52;;;11.00;99.90;;;;;;5051120;28;20073;-65
2022/11/11 08:40:51;;;;;;;22.60;11.05;;;10.90;99.90;;;;;;5053538;28;20041;-65
2022/11/11 08:43:16;;;;;;;21.45;10.20;;;10.90;99.90;;;;;;5053916;28;20037;-65
2022/11/11 08:45:42;;;;;;;17.90;9.73;;;10.90;99.90;;;;;;5052194;28;20041;-65
2022/11/11 08:48:11;;;;;;;17.48;10.20;;;10.90;99.90;;;;;;5053798;28;20452;-66
2022/11/11 08:50:40;;;;;;;20.85;10.60;;;10.90;99.90;;;;;;5052591;28;20059;-67
2022/11/11 08:53:09;;;;;;;19.70;9.35;;;10.90;99.90;;;;;;5052504;28;20148;-65
2022/11/11 08:55:35;;;;;;;17.75;10.02;;;11.00;99.90;;;;;;5053329;28;20033;-65
2022/11/11 08:58:04;;;;;;;21.60;11.10;;;11.00;99.90;;;;;;5053642;28;20103;-65
2022/11/11 09:00:31;;;;;;;19.20;9.85;;;11.00;99.90;;;;;;5052590;28;20037;-65
2022/11/11 09:03:05;;;;;;;20.58;9.98;;;11.00;99.90;;;;;;5053573;28;20083;-65
2022/11/11 09:05:31;;;;;;;21.15;10.52;;;11.00;99.90;;;;;;5053218;28;20501;-65
2022/11/11 09:08:00;;;;;;;19.45;9.90;;;11.00;99.90;;;;;;5053631;28;20045;-65
2022/11/11 09:10:26;;;;;;;18.02;9.68;;;11.00;99.90;;;;;;5053331;28;20044;-65
2022/11/11 09:12:58;;;;;;;19.85;9.77;;;11.00;99.90;;;;;;5053202;28;20166;-65
2022/11/11 09:15:25;;;;;;;;;;;11.00;99.90;;;;;;5053851;28;20535;-64
2022/11/11 09:17:51;;;;;;;22.17;10.10;;;11.00;99.90;;;;;;5053209;28;19927;-65
2022/11/11 09:20:17;;;;;;;32.08;10.70;;;11.10;99.90;;;;;;5053309;28;20672;-65
2022/11/11 09:22:45;;;;;;;23.98;11.07;;;11.10;99.90;;;;;;5051929;28;20244;-65
2022/11/11 09:25:11;;;;;;;21.02;11.27;;;11.10;99.90;;;;;;5052896;28;20041;-65
2022/11/11 09:27:36;;;;;;;23.15;11.88;;;11.10;99.90;;;;;;5053216;28;20047;-65
2022/11/11 09:30:03;;;;;;;19.45;11.05;;;11.10;99.90;;;;;;5053331;28;20047;-65
2022/11/11 09:32:28;;;;;;;19.90;11.07;;;11.10;99.90;;;;;;5053283;28;20090;-65
2022/11/11 09:34:57;;;;;;;24.85;12.50;;;11.20;99.90;;;;;;5052826;28;20049;-65
2022/11/11 09:37:23;;;;;;;23.95;12.75;;;11.20;99.90;;;;;;5052898;28;20037;-64
2022/11/11 09:39:48;;;;;;;23.70;12.80;;;11.20;99.90;;;;;;5053001;28;20051;-65
2022/11/11 09:42:38;;;;;;;27.63;14.27;;;11.30;99.90;;;;;;5052863;28;20037;-65
2022/11/11 09:45:19;;;;;;;25.85;13.35;;;11.30;99.90;;;;;;5052408;28;20107;-65
2022/11/11 09:47:58;;;;;;;26.90;12.98;;;11.30;99.90;;;;;;5052853;28;20044;-65
2022/11/11 09:50:27;;;;;;;23.83;12.70;;;11.20;99.90;;;;;;5051340;28;20726;-65
2022/11/11 09:52:58;;;;;;;27.30;14.02;;;11.20;99.90;;;;;;5052698;28;20413;-64
2022/11/11 09:55:32;;;;;;;25.67;12.45;;;11.30;99.90;;;;;;5052485;28;20052;-64
2022/11/11 09:58:02;;;;;;;29.00;12.57;;;11.20;99.90;;;;;;5052632;28;20053;-64
2022/11/11 10:00:31;;;;;;;29.90;14.23;;;11.20;99.90;;;;;;5052422;28;20124;-64
2022/11/11 10:03:04;;;;;;;24.45;11.70;;;11.20;99.90;;;;;;5052732;28;20110;-65
2022/11/11 10:06:12;;;;;;;23.85;13.02;;;11.10;99.90;;;;;;5050883;28;20466;-65
2022/11/11 10:08:55;;;;;;;24.60;12.80;;;11.30;99.90;;;;;;5008239;28;20054;-65
2022/11/11 10:11:42;;;;;;;25.35;12.65;;;11.20;99.90;;;;;;5008045;28;20762;-65
2022/11/11 10:14:07;;;;;;;25.90;12.73;;;11.20;99.90;;;;;;5008591;28;20204;-65
2022/11/11 10:16:49;;;;;;;20.73;10.98;;;11.20;99.90;;;;;;5008526;28;20073;-65
2022/11/11 10:19:36;;;;;;;27.95;12.85;;;11.20;99.90;;;;;;5008465;28;20058;-65
2022/11/11 10:22:14;;;;;;;26.58;11.85;;;11.10;99.90;;;;;;5009128;28;20052;-65
2022/11/11 10:24:44;;;;;;;23.42;12.43;;;11.20;99.90;;;;;;5009645;28;20053;-65
2022/11/11 10:27:21;;;;;;;25.88;11.63;;;11.20;99.90;;;;;;5009808;28;20065;-65
2022/11/11 10:29:47;;;;;;;22.88;12.73;;;11.10;99.90;;;;;;5009552;28;20041;-68
2022/11/11 10:32:28;;;;;;;26.80;12.20;;;11.20;99.90;;;;;;5009444;28;20081;-65
2022/11/11 10:34:59;;;;;;;25.08;12.00;;;11.20;99.90;;;;;;5009171;28;20042;-65
2022/11/11 10:37:38;;;;;;;21.60;11.55;;;11.20;99.90;;;;;;4993262;28;20173;-65
2022/11/11 10:40:28;;;;;;;22.73;11.60;;;11.10;99.90;;;;;;4989831;28;20046;-65
2022/11/11 10:42:53;;;;;;;20.73;11.35;;;11.10;99.90;;;;;;4976775;28;20052;-64
2022/11/11 10:45:26;;;;;;;21.42;11.52;;;11.10;99.90;;;;;;5050547;28;20037;-64
2022/11/11 10:47:59;;;;;;;;;;;11.10;99.90;;;;;;5050661;28;20424;-65
2022/11/11 10:50:40;;;;;;;18.30;10.50;;;11.00;99.90;;;;;;5039510;28;19917;-64
2022/11/11 10:53:41;;;;;;;17.35;10.50;;;11.00;99.90;;;;;;5049206;28;20103;-64
2022/11/11 10:56:23;;;;;;;17.88;10.45;;;11.10;99.90;;;;;;5009585;28;20052;-64
2022/11/11 10:59:12;;;;;;;22.00;11.25;;;11.10;99.90;;;;;;5047754;28;20051;-65
2022/11/11 11:02:03;;;;;;;20.02;9.82;;;11.10;99.90;;;;;;5049044;28;20060;-65
2022/11/11 11:05:08;;;;;;;19.88;11.05;;;11.10;99.90;;;;;;5048455;28;20631;-65
2022/11/11 11:07:40;;;;;;;17.48;10.60;;;11.20;99.90;;;;;;5005290;28;20076;-65
2022/11/11 11:10:18;;;;;;;14.30;9.15;;;11.20;99.90;;;;;;5030761;28;20104;-65
2022/11/11 11:12:57;;;;;;;18.42;10.70;;;11.20;99.90;;;;;;5031230;28;20053;-65
2022/11/11 11:15:26;;;;;;;17.20;9.60;;;11.30;99.90;;;;;;5031137;28;20049;-65
2022/11/11 11:18:11;;;;;;;18.90;11.00;;;11.30;99.90;;;;;;5030641;28;20060;-66
2022/11/11 11:20:37;;;;;;;16.55;10.82;;;11.30;99.90;;;;;;5029254;28;20041;-65
2022/11/11 11:23:03;;;;;;;17.27;10.15;;;11.40;99.90;;;;;;5031312;28;20044;-68
2022/11/11 11:25:32;;;;;;;19.45;10.93;;;11.30;99.90;;;;;;5032950;28;20557;-68
2022/11/11 11:28:13;;;;;;;21.38;10.63;;;11.40;99.90;;;;;;5050723;28;20040;-66
2022/11/11 11:30:39;;;;;;;18.50;10.98;;;11.40;99.90;;;;;;5050529;28;20094;-65
2022/11/11 11:33:07;;;;;;;16.58;10.45;;;11.50;99.90;;;;;;5050964;28;20037;-65
2022/11/11 11:35:37;;;;;;;20.58;10.65;;;11.50;99.90;;;;;;5050252;28;20412;-65
2022/11/11 11:38:08;;;;;;;17.38;10.73;;;11.60;99.90;;;;;;5050004;28;20587;-65
2022/11/11 11:40:57;;;;;;;21.08;11.88;;;11.60;99.90;;;;;;5050829;28;20047;-65
2022/11/11 11:43:37;;;;;;;25.63;11.00;;;11.60;99.90;;;;;;5051072;28;20545;-65
2022/11/11 11:46:13;;;;;;;16.73;10.45;;;11.70;99.90;;;;;;5050878;28;20397;-65
2022/11/11 11:48:48;;;;;;;21.92;10.85;;;11.70;99.90;;;;;;5049733;28;20485;-65
2022/11/11 11:51:20;;;;;;;18.30;10.30;;;11.80;99.90;;;;;;5050670;28;20405;-65
2022/11/11 11:54:00;;;;;;;20.70;10.40;;;11.80;99.90;;;;;;5050797;28;20083;-65
2022/11/11 11:56:28;;;;;;;20.05;10.48;;;11.90;99.90;;;;;;5050532;28;20405;-65
2022/11/11 11:59:35;;;;;;;19.55;10.57;;;11.90;99.90;;;;;;5049495;28;20052;-65
2022/11/11 12:02:36;;;;;;;17.13;9.52;;;11.90;99.90;;;;;;5048617;28;20033;-65
2022/11/11 12:05:08;;;;;;;21.85;10.32;;;11.80;99.90;;;;;;5027648;28;20038;-65
2022/11/11 12:07:48;;;;;;;17.50;9.33;;;11.90;99.90;;;;;;5046802;28;20102;-65
2022/11/11 12:10:24;;;;;;;16.38;10.25;;;11.90;99.90;;;;;;5050316;28;20045;-65
2022/11/11 12:13:05;;;;;;;17.95;10.43;;;11.90;99.90;;;;;;5051954;28;20044;-65
2022/11/11 12:15:42;;;;;;;15.38;9.82;;;11.90;99.90;;;;;;5054317;28;20040;-65
2022/11/11 12:18:16;;;;;;;21.15;10.85;;;11.90;99.90;;;;;;5054336;28;20041;-65
2022/11/11 12:21:03;;;;;;;19.65;11.00;;;12.00;99.90;;;;;;5055011;28;20048;-66
2022/11/11 12:23:55;;;;;;;16.15;9.75;;;12.00;99.90;;;;;;5054652;28;20041;-66
2022/11/11 12:26:52;;;;;;;17.27;10.23;;;12.10;99.90;;;;;;5054453;28;20040;-66
2022/11/11 12:29:33;;;;;;;22.15;9.95;;;12.10;99.90;;;;;;5054075;28;20486;-67
2022/11/11 12:32:10;;;;;;;17.48;9.85;;;12.10;99.90;;;;;;5053175;28;20076;-66
2022/11/11 12:34:55;;;;;;;14.82;9.32;;;12.20;99.90;;;;;;5054135;28;20052;-66
2022/11/11 12:37:48;;;;;;;14.88;9.35;;;12.30;99.90;;;;;;5052907;28;20044;-66
2022/11/11 12:40:38;;;;;;;17.63;9.98;;;12.30;99.90;;;;;;5054110;28;20052;-66
2022/11/11 12:43:13;;;;;;;18.42;10.25;;;12.30;99.90;;;;;;5049736;28;20049;-66
2022/11/11 12:45:47;;;;;;;14.90;8.85;;;12.30;99.90;;;;;;5053902;28;20072;-66
2022/11/11 12:48:29;;;;;;;15.88;8.68;;;12.30;99.90;;;;;;5053868;28;20410;-66
2022/11/11 12:50:57;;;;;;;13.50;8.85;;;12.30;99.90;;;;;;5053776;28;20099;-66
2022/11/11 12:53:32;;;;;;;11.02;7.90;;;12.30;99.90;;;;;;5053937;28;20119;-66
2022/11/11 12:56:06;;;;;;;12.77;8.25;;;12.30;99.90;;;;;;5053679;28;20037;-66
2022/11/11 12:58:48;;;;;;;13.40;7.47;;;12.30;99.90;;;;;;5053571;28;20056;-67
2022/11/11 13:01:46;;;;;;;14.35;8.00;;;12.20;99.90;;;;;;5053664;28;20120;-67
2022/11/11 13:04:33;;;;;;;11.73;7.57;;;12.30;99.90;;;;;;5053613;28;20048;-66
2022/11/11 13:07:14;;;;;;;13.50;7.93;;;12.30;99.90;;;;;;5053716;28;20052;-66
2022/11/11 13:10:21;;;;;;;14.45;7.93;;;12.20;99.90;;;;;;5053388;28;20036;-66
2022/11/11 13:13:13;;;;;;;13.75;8.15;;;12.30;99.90;;;;;;5053243;28;20489;-66
2022/11/11 13:15:39;;;;;;;11.95;7.65;;;12.30;99.90;;;;;;5053241;28;20033;-66
2022/11/11 13:18:17;;;;;;;15.38;7.47;;;12.30;99.90;;;;;;5053292;28;20094;-66
2022/11/11 13:21:00;;;;;;;12.15;7.15;;;12.30;99.90;;;;;;5053406;28;20044;-66
2022/11/11 13:23:25;;;;;;;12.32;6.85;;;12.30;99.90;;;;;;5053251;28;20389;-66
2022/11/11 13:25:59;;;;;;;12.23;7.07;;;12.30;99.90;;;;;;5053223;28;20037;-66
2022/11/11 13:28:40;;;;;;;12.10;7.32;;;12.30;99.90;;;;;;5053308;28;20057;-66
2022/11/11 13:31:34;;;;;;;14.35;7.28;;;12.30;99.90;;;;;;5053202;28;20140;-66
2022/11/11 13:34:08;;;;;;;13.00;6.68;;;12.30;99.90;;;;;;5052829;28;20084;-66
2022/11/11 13:36:48;;;;;;;14.00;7.43;;;12.30;99.90;;;;;;5053379;28;20076;-66
2022/11/11 13:39:26;;;;;;;12.20;6.78;;;12.30;99.90;;;;;;5053166;28;20474;-66
2022/11/11 13:41:54;;;;;;;11.80;7.22;;;12.40;99.90;;;;;;5052754;28;20044;-66
2022/11/11 13:44:30;;;;;;;13.73;7.20;;;12.40;99.90;;;;;;5052136;28;20497;-66
2022/11/11 13:47:03;;;;;;;14.82;7.30;;;12.40;99.90;;;;;;5052613;28;20037;-66
2022/11/11 13:49:40;;;;;;;15.05;6.93;;;12.40;99.90;;;;;;5052882;28;20043;-66
2022/11/11 13:52:32;;;;;;;11.13;6.38;;;12.40;99.90;;;;;;5052597;28;20524;-66
2022/11/11 13:55:06;;;;;;;13.35;6.50;;;12.40;99.90;;;;;;5052582;28;20076;-66
2022/11/11 13:57:34;;;;;;;12.85;6.82;;;12.40;99.90;;;;;;5051359;28;20048;-66
2022/11/11 14:00:03;;;;;;;12.10;6.97;;;12.40;99.90;;;;;;5052307;28;20048;-66
2022/11/11 14:02:34;;;;;;;9.57;5.97;;;12.40;99.90;;;;;;5052774;28;20131;-66